Terminal Aerodrome Forecast
Issued by NWS Pocatello, ID

Home | Current Version | Previous Version | Text Only | Print | Product List | Glossary On
Versions: 1 2 3 4 5 6 7 8 9 10 11 12 13 14 15 16
000
FTUS45 KPIH 312300 RRA
TAFIDA
TAF
KIDA 312341Z 0100/0124 22010KT P6SM SCT140 SCT200
     FM010300 04008KT P6SM BKN140 BKN200
     FM011000 07008KT P6SM VCSH BKN070 BKN140
     FM011500 14015KT P6SM VCSH SCT060 SCT160
     FM011800 18025G35KT P6SM SCT050 SCT160=

USA.gov is the U.S. government's official web portal to all federal, state and local government web resources and services.